• Join FlightAware (Why Join?)
  • Login
  • US Flag 
01:22PM EDT


 

Airport Tracker/Info


-or-


 

Live Flight TrackerFlight Track Log ✈ RHC9867 ✈ 26-Jan-2014 ✈ ZPPP / KMG - ZSHC / HGH

Flight Track Log - Related Links

Times and Time Zones

All times are in EST time to prevent confusion due to time zone crossing. See the RHC9867 flight status page for this flight to view local times or setup timezone preferences in your user account.

Time Position Orientation Groundspeed Altitude Reporting Facility
EST Latitude Longitude Course Direction KTS MPH feet Rate Location/Type
10:12PM 25.5510 104.1593 68° East  Level Estimated
10:13PM 25.5953 104.2828 68° East  Level Estimated
10:14PM 25.6395 104.4064 68° East  Level Estimated
10:15PM 25.6837 104.5301 68° East  Level Estimated
10:16PM 25.7277 104.6539 68° East  Level Estimated
10:17PM 25.7716 104.7778 68° East  Level Estimated
10:18PM 25.8154 104.9018 69° East  Level Estimated
10:19PM 25.8591 105.0258 69° East  Level Estimated
10:20PM 25.9027 105.1500 69° East  Level Estimated
10:21PM 25.9462 105.2743 69° East  Level Estimated
10:22PM 25.9896 105.3986 69° East  Level Estimated
10:23PM 26.0329 105.5230 69° East  Level Estimated
10:24PM 26.0761 105.6476 69° East  Level Estimated
10:25PM 26.1192 105.7722 69° East  Level Estimated
10:26PM 26.1621 105.8969 69° East  Level Estimated
10:27PM 26.2050 106.0217 69° East  Level Estimated
10:28PM 26.2477 106.1466 69° East  Level Estimated
10:29PM 26.2904 106.2716 69° East  Level Estimated
10:30PM 26.3329 106.3966 69° East  Level Estimated
10:31PM 26.3753 106.5218 69° East  Level Estimated
10:32PM 26.4177 106.6471 69° East  Level Estimated
10:33PM 26.4599 106.7724 69° East  Level Estimated
10:34PM 26.5020 106.8979 69° East  Level Estimated
10:35PM 26.5440 107.0234 69° East  Level Estimated
10:36PM 26.5858 107.1490 70° East  Level Estimated
10:37PM 26.6276 107.2747 70° East  Level Estimated
10:38PM 26.6693 107.4005 70° East  Level Estimated
10:39PM 26.7108 107.5264 70° East  Level Estimated
10:40PM 26.7523 107.6524 70° East  Level Estimated
10:41PM 26.7936 107.7785 70° East  Level Estimated
10:42PM 26.8348 107.9047 70° East  Level Estimated
10:43PM 26.8759 108.0310 70° East  Level Estimated
10:44PM 26.9169 108.1573 70° East  Level Estimated
10:45PM 26.9577 108.2838 70° East  Level Estimated
10:46PM 26.9985 108.4103 70° East  Level Estimated
10:47PM 27.0392 108.5370 70° East  Level Estimated
10:48PM 27.0797 108.6637 70° East  Level Estimated
10:49PM 27.1201 108.7905 70° East  Level Estimated
10:50PM 27.1604 108.9174 70° East  Level Estimated
10:51PM 27.2006 109.0444 70° East  Level Estimated
10:52PM 27.2407 109.1715 70° East  Level Estimated
10:53PM 27.2806 109.2987 71° East  Level Estimated
10:54PM 27.3205 109.4260 71° East  Level Estimated
10:55PM 27.3602 109.5533 71° East  Level Estimated
10:56PM 27.3999 109.6808 71° East  Level Estimated
10:57PM 27.4394 109.8083 71° East  Level Estimated
10:58PM 27.4787 109.9360 71° East  Level Estimated
10:59PM 27.5180 110.0637 71° East  Level Estimated
11:00PM 27.5572 110.1915 71° East  Level Estimated
11:01PM 27.5962 110.3195 71° East  Level Estimated
11:02PM 27.6351 110.4475 71° East  Level Estimated
11:03PM 27.6739 110.5756 71° East  Level Estimated
11:04PM 27.7126 110.7038 71° East  Level Estimated
11:05PM 27.7512 110.8320 71° East  Level Estimated
11:06PM 27.7896 110.9604 71° East  Level Estimated
11:07PM 27.8279 111.0889 71° East  Level Estimated
11:08PM 27.8661 111.2174 71° East  Level Estimated
11:09PM 27.9042 111.3460 71° East  Level Estimated
11:10PM 27.9422 111.4748 72° East  Level Estimated
11:11PM 27.9801 111.6036 72° East  Level Estimated
11:12PM 28.0178 111.7325 72° East  Level Estimated
11:13PM 28.0554 111.8615 72° East  Level Estimated
11:14PM 28.0929 111.9906 72° East  Level Estimated
11:15PM 28.1303 112.1198 72° East  Level Estimated
11:16PM 28.1675 112.2490 72° East  Level Estimated
11:17PM 28.2046 112.3784 72° East  Level Estimated
11:18PM 28.2416 112.5079 72° East  Level Estimated
11:19PM 28.2785 112.6374 72° East  Level Estimated
11:20PM 28.3153 112.7670 72° East  Level Estimated
11:21PM 28.3519 112.8968 72° East  Level Estimated
11:22PM 28.3884 113.0266 72° East  Level Estimated
11:23PM 28.4248 113.1565 72° East  Level Estimated
11:24PM 28.4611 113.2865 72° East  Level Estimated
11:25PM 28.4972 113.4165 72° East  Level Estimated
11:26PM 28.5332 113.5467 72° East  Level Estimated
11:27PM 28.5691 113.6770 73° East  Level Estimated
11:28PM 28.6049 113.8073 73° East  Level Estimated
11:29PM 28.6406 113.9377 73° East  Level Estimated
11:30PM 28.6761 114.0683 73° East  Level Estimated
11:31PM 28.7115 114.1989 73° East  Level Estimated
11:32PM 28.7467 114.3296 73° East  Level Estimated
11:33PM 28.7819 114.4604 73° East  Level Estimated
11:34PM 28.8169 114.5912 73° East  Level Estimated
11:35PM 28.8518 114.7222 73° East  Level Estimated
11:36PM 28.8866 114.8532 73° East  Level Estimated
11:37PM 28.9212 114.9844 73° East  Level Estimated
11:38PM 28.9557 115.1156 73° East  Level Estimated
11:39PM 28.9901 115.2469 73° East  Level Estimated
11:40PM 29.0244 115.3783 73° East  Level Estimated
11:41PM 29.0585 115.5098 73° East  Level Estimated
11:42PM 29.0925 115.6414 73° East  Level Estimated
11:43PM 29.1264 115.7730 74° East  Level Estimated
11:44PM 29.1601 115.9048 74° East  Level Estimated
11:45PM 29.1937 116.0366 74° East  Level Estimated
11:46PM 29.2272 116.1685 74° East  Level Estimated
11:47PM 29.2606 116.3005 74° East  Level Estimated
11:48PM 29.2938 116.4326 74° East  Level Estimated
11:49PM 29.3269 116.5648 74° East  Level Estimated
11:50PM 29.3599 116.6971 74° East  Level Estimated
11:51PM 29.3927 116.8294 74° East  Level Estimated
11:52PM 29.4254 116.9618 74° East  Level Estimated
11:53PM 29.4580 117.0944 74° East  Level Estimated
11:54PM 29.4904 117.2270 74° East  Level Estimated
11:55PM 29.5227 117.3596 74° East  Level Estimated
11:56PM 29.5549 117.4924 74° East  Level Estimated
11:57PM 29.5869 117.6253 74° East  Level Estimated
11:58PM 29.6189 117.7582 75° East  Level Estimated
11:59PM 29.6506 117.8913 75° East  Level Estimated
12:00AM 29.6823 118.0244 75° East  Level Estimated
12:01AM 29.7138 118.1575 75° East  Level Estimated
12:02AM 29.7452 118.2908 75° East  Level Estimated
12:03AM 29.7764 118.4242 75° East  Level Estimated
12:04AM 29.8075 118.5576 75° East  Level Estimated
12:05AM 29.8385 118.6912 75° East  Level Estimated
12:06AM 29.8694 118.8248 75° East  Level Estimated
12:07AM 29.9001 118.9585 75° East  Level Estimated
12:08AM 29.9307 119.0922 75° East  Level Estimated
12:09AM 29.9611 119.2261 75° East  Level Estimated
12:10AM 29.9914 119.3600 75° East  Level Estimated
12:11AM 30.0216 119.4940 75° East  Level Estimated
12:12AM 30.0516 119.6282 75° East  Level Estimated
12:13AM 30.0815 119.7623 76° East  Level Estimated
12:14AM 30.1113 119.8966 76° East  Level Estimated
12:15AM 30.1409 120.0309 76° East  Level Estimated
12:16AM 30.1704 120.1654 76° East  Level Estimated
12:17AM 30.1997 120.2999 76° East  Level Estimated
12:18AM 30.2283 120.4317 76° East  Level Estimated
12:19AM 30.2283 120.4317 319° Northwest  Level Estimated
12:20AM 30.2283 120.4317 319° Northwest  Level Estimated
12:21AM 30.2283 120.4317 319° Northwest  Level Estimated
12:22AM 30.2283 120.4317 319° Northwest  Level Estimated